Time;durP1;ratioP1;P1;durP2;ratioP2;P2;SDS_P1;SDS_P2;PMS_P1;PMS_P2;Temp;Humidity;BMP_temperature;BMP_pressure;BME280_temperature;BME280_humidity;BME280_pressure;Samples;Min_cycle;Max_cycle;Signal;HPM_P1;HPM_P2
2022/08/22 00:01:31;;;;;;;7.38;3.25;;;24.50;54.00;;;;;;5027097;28;20416;-76
2022/08/22 00:04:09;;;;;;;;;;;24.50;54.00;;;;;;5008943;28;20083;-76
2022/08/22 00:06:59;;;;;;;5.65;2.88;;;24.50;54.00;;;;;;4997214;28;19917;-76
2022/08/22 00:09:34;;;;;;;;;;;24.50;53.90;;;;;;5037741;28;20506;-76
2022/08/22 00:12:28;;;;;;;6.15;3.17;;;24.50;54.00;;;;;;5070962;28;19908;-76
2022/08/22 00:15:13;;;;;;;7.03;2.80;;;24.50;53.90;;;;;;5075925;28;20445;-76
2022/08/22 00:18:21;;;;;;;5.38;2.88;;;24.40;54.00;;;;;;5050266;28;20025;-76
2022/08/22 00:21:07;;;;;;;5.95;2.78;;;24.40;53.50;;;;;;5060454;28;20062;-76
2022/08/22 00:23:42;;;;;;;7.30;3.08;;;24.40;53.70;;;;;;5071146;28;20551;-76
2022/08/22 00:26:21;;;;;;;6.78;3.15;;;24.40;53.70;;;;;;5052504;28;20024;-76
2022/08/22 00:29:05;;;;;;;5.65;3.05;;;24.40;53.60;;;;;;5053457;28;20031;-76
2022/08/22 00:31:41;;;;;;;6.47;2.42;;;24.40;54.00;;;;;;5052340;28;20040;-76
2022/08/22 00:34:21;;;;;;;8.13;2.85;;;24.40;53.80;;;;;;5070019;28;20028;-76
2022/08/22 00:36:50;;;;;;;;;;;24.40;53.90;;;;;;5084189;22;20048;-73
2022/08/22 00:39:39;;;;;;;5.78;2.72;;;24.40;53.90;;;;;;5053080;28;19909;-73
2022/08/22 00:42:22;;;;;;;5.35;2.67;;;24.50;53.80;;;;;;5057259;28;20059;-73
2022/08/22 00:45:30;;;;;;;5.65;2.83;;;24.40;53.60;;;;;;5053467;28;20033;-72
2022/08/22 00:48:00;;;;;;;6.68;2.88;;;24.40;53.80;;;;;;4953818;28;21089;-72
2022/08/22 00:50:44;;;;;;;6.38;2.72;;;24.40;53.90;;;;;;5052584;28;20477;-72
2022/08/22 00:53:24;;;;;;;8.57;2.80;;;24.40;53.70;;;;;;5053624;28;20067;-72
2022/08/22 00:56:11;;;;;;;5.93;2.85;;;24.40;53.70;;;;;;5055305;28;20376;-72
2022/08/22 00:59:21;;;;;;;6.50;2.97;;;24.40;53.90;;;;;;5056182;28;20025;-72
2022/08/22 01:02:28;;;;;;;5.28;2.67;;;24.40;53.80;;;;;;5047974;28;20423;-72
2022/08/22 01:05:06;;;;;;;5.97;2.90;;;24.40;54.00;;;;;;5073307;28;20511;-72
2022/08/22 01:07:56;;;;;;;7.07;3.17;;;24.40;53.70;;;;;;5040240;28;20772;-72
2022/08/22 01:10:41;;;;;;;5.40;2.80;;;24.40;53.70;;;;;;5067853;28;20040;-72
2022/08/22 01:13:34;;;;;;;5.75;2.83;;;24.40;53.80;;;;;;5073342;28;20392;-72
2022/08/22 01:16:35;;;;;;;7.47;2.63;;;24.40;53.70;;;;;;5074299;28;20039;-72
2022/08/22 01:19:39;;;;;;;6.07;2.78;;;24.40;54.10;;;;;;5055583;28;20389;-73
2022/08/22 01:22:46;;;;;;;5.82;2.90;;;24.40;54.00;;;;;;5072978;28;20105;-72
2022/08/22 01:25:27;;;;;;;4.70;2.55;;;24.40;53.90;;;;;;5073137;28;20046;-73
2022/08/22 01:28:11;;;;;;;5.43;2.80;;;24.40;54.10;;;;;;5056427;28;20369;-73
2022/08/22 01:31:15;;;;;;;5.22;2.80;;;24.40;54.00;;;;;;5072781;28;20025;-73
2022/08/22 01:34:12;;;;;;;5.93;2.50;;;24.40;54.00;;;;;;5070209;28;20393;-73
2022/08/22 01:37:00;;;;;;;5.13;2.47;;;24.40;53.90;;;;;;5063247;28;20433;-73
2022/08/22 01:39:37;;;;;;;6.22;2.50;;;24.30;54.00;;;;;;5071960;28;20021;-73
2022/08/22 01:42:37;;;;;;;5.57;2.80;;;24.40;54.00;;;;;;5073162;28;20032;-73
2022/08/22 01:45:18;;;;;;;;;;;24.40;54.00;;;;;;5074012;28;20033;-73
2022/08/22 01:48:03;;;;;;;6.45;2.90;;;24.40;54.10;;;;;;5072635;28;19915;-73
2022/08/22 01:50:35;;;;;;;5.80;2.80;;;24.40;54.10;;;;;;5056352;28;20024;-73
2022/08/22 01:53:13;;;;;;;6.97;2.55;;;24.40;54.10;;;;;;5056075;28;20394;-73
2022/08/22 01:56:00;;;;;;;6.57;2.75;;;24.40;54.10;;;;;;5071612;28;20473;-73
2022/08/22 01:58:32;;;;;;;6.50;2.72;;;24.40;54.20;;;;;;5072191;28;20388;-73
2022/08/22 02:01:20;;;;;;;5.22;2.63;;;24.40;54.20;;;;;;5074299;28;20103;-73
2022/08/22 02:04:01;;;;;;;4.80;2.53;;;24.40;54.20;;;;;;5056439;28;20032;-73
2022/08/22 02:06:39;;;;;;;7.05;3.08;;;24.30;54.10;;;;;;5073581;28;20330;-73
2022/08/22 02:09:32;;;;;;;5.80;2.85;;;24.30;54.20;;;;;;5072437;28;20020;-73
2022/08/22 02:12:20;;;;;;;5.93;2.80;;;24.30;54.30;;;;;;5045737;28;20056;-73
2022/08/22 02:14:57;;;;;;;7.00;2.85;;;24.30;54.20;;;;;;5072560;28;20039;-73
2022/08/22 02:17:47;;;;;;;5.97;3.05;;;24.30;54.90;;;;;;5054555;28;20070;-73
2022/08/22 02:20:49;;;;;;;6.03;3.03;;;24.30;54.30;;;;;;5072089;28;20035;-73
2022/08/22 02:23:21;;;;;;;5.88;3.08;;;24.30;54.20;;;;;;5071297;28;20028;-73
2022/08/22 02:26:01;;;;;;;6.20;3.05;;;24.40;54.40;;;;;;5054310;28;20016;-73
2022/08/22 02:28:50;;;;;;;7.22;3.17;;;24.30;54.30;;;;;;5072947;28;20025;-73
2022/08/22 02:31:43;;;;;;;7.07;3.00;;;24.40;54.30;;;;;;5071871;28;20028;-73
2022/08/22 02:34:23;;;;;;;6.45;2.70;;;24.40;54.40;;;;;;5070381;28;20021;-73
2022/08/22 02:37:07;;;;;;;8.00;3.03;;;24.40;54.40;;;;;;5070300;28;20036;-73
2022/08/22 02:40:03;;;;;;;8.70;3.25;;;24.30;54.30;;;;;;5074698;28;20506;-80
2022/08/22 02:42:48;;;;;;;12.98;3.15;;;24.30;53.90;;;;;;5069300;28;20074;-74
2022/08/22 02:45:33;;;;;;;14.18;3.10;;;24.20;53.80;;;;;;5065311;28;20020;-75
2022/08/22 02:48:13;;;;;;;13.63;3.05;;;24.20;54.30;;;;;;5056192;28;20062;-75
2022/08/22 02:51:10;;;;;;;7.35;2.92;;;24.20;54.30;;;;;;5072734;28;20103;-75
2022/08/22 02:53:47;;;;;;;11.90;3.28;;;24.20;54.60;;;;;;5071913;28;20052;-75
2022/08/22 02:56:30;;;;;;;9.00;3.95;;;24.20;54.60;;;;;;5063648;28;20036;-75
2022/08/22 02:59:33;;;;;;;12.10;3.60;;;24.30;54.70;;;;;;5072812;28;20067;-75
2022/08/22 03:02:26;;;;;;;10.88;3.58;;;24.30;54.60;;;;;;5070642;28;20021;-74
2022/08/22 03:04:56;;;;;;;8.77;3.22;;;24.30;54.80;;;;;;5041610;28;20048;-75
2022/08/22 03:07:38;;;;;;;11.68;3.85;;;24.30;54.70;;;;;;5068546;28;20027;-75
2022/08/22 03:10:12;;;;;;;9.57;3.85;;;24.30;54.60;;;;;;5072398;28;20481;-75
2022/08/22 03:13:05;;;;;;;7.00;3.25;;;24.30;54.80;;;;;;5054239;28;20435;-75
2022/08/22 03:15:55;;;;;;;4.47;2.97;;;24.30;54.80;;;;;;5066634;28;20036;-74
2022/08/22 03:18:40;;;;;;;8.02;3.55;;;24.30;54.80;;;;;;5070433;28;20020;-75
2022/08/22 03:21:39;;;;;;;7.32;3.30;;;24.30;54.80;;;;;;5071273;28;20538;-75
2022/08/22 03:24:22;;;;;;;7.78;3.80;;;24.30;54.80;;;;;;5071363;28;20024;-75
2022/08/22 03:26:58;;;;;;;9.73;3.90;;;24.30;54.90;;;;;;5052461;28;20128;-75
2022/08/22 03:29:39;;;;;;;7.53;3.50;;;24.30;54.90;;;;;;5036642;28;20507;-75
2022/08/22 03:32:22;;;;;;;7.93;3.60;;;24.30;55.00;;;;;;5037523;28;20077;-75
2022/08/22 03:35:07;;;;;;;7.32;3.25;;;24.30;55.00;;;;;;5053811;28;20550;-75
2022/08/22 03:37:39;;;;;;;8.38;3.25;;;24.30;55.10;;;;;;5037547;28;20486;-75
2022/08/22 03:40:18;;;;;;;6.25;3.30;;;24.20;55.10;;;;;;5052969;28;20406;-75
2022/08/22 03:43:02;;;;;;;9.52;3.25;;;24.30;55.20;;;;;;5071594;28;20032;-75
2022/08/22 03:45:51;;;;;;;8.13;3.53;;;24.30;55.20;;;;;;5036387;28;20060;-75
2022/08/22 03:48:49;;;;;;;6.78;3.55;;;24.30;55.30;;;;;;5065850;28;20032;-76
2022/08/22 03:51:18;;;;;;;6.57;3.65;;;24.30;55.20;;;;;;5064077;28;20119;-74
2022/08/22 03:54:14;;;;;;;10.57;3.58;;;24.30;55.40;;;;;;5037916;28;20055;-75
2022/08/22 03:57:20;;;;;;;5.75;3.15;;;24.30;55.40;;;;;;5053527;28;20488;-75
2022/08/22 04:00:09;;;;;;;8.23;3.22;;;24.30;55.20;;;;;;5054411;28;20024;-75
2022/08/22 04:02:50;;;;;;;7.97;3.75;;;24.30;55.30;;;;;;5054263;28;20075;-74
2022/08/22 04:05:27;;;;;;;7.03;3.08;;;24.30;55.20;;;;;;5071422;28;20025;-75
2022/08/22 04:08:22;;;;;;;10.60;4.07;;;24.30;55.20;;;;;;5072045;28;20062;-74
2022/08/22 04:11:17;;;;;;;6.05;3.45;;;24.30;55.30;;;;;;5072207;28;20036;-74
2022/08/22 04:14:02;;;;;;;7.65;3.20;;;24.30;55.20;;;;;;5071925;28;20029;-74
2022/08/22 04:16:49;;;;;;;6.28;3.20;;;24.30;55.30;;;;;;5071164;28;20026;-75
2022/08/22 04:19:49;;;;;;;6.85;3.97;;;24.30;55.40;;;;;;5072386;28;20051;-75
2022/08/22 04:22:59;;;;;;;6.80;3.45;;;24.20;55.30;;;;;;5072007;28;20028;-75
2022/08/22 04:25:57;;;;;;;;;;;24.30;55.40;;;;;;5020846;28;20485;-75
2022/08/22 04:28:36;;;;;;;6.93;3.53;;;24.30;55.50;;;;;;5047852;28;19908;-74
2022/08/22 04:31:16;;;;;;;8.10;3.45;;;24.30;55.50;;;;;;5071990;28;20562;-74
2022/08/22 04:33:53;;;;;;;8.32;3.65;;;24.30;55.40;;;;;;5071736;28;20025;-74
2022/08/22 04:36:31;;;;;;;8.02;3.83;;;24.20;55.50;;;;;;5070757;28;20166;-75
2022/08/22 04:39:02;;;;;;;9.13;4.03;;;24.30;55.60;;;;;;5053670;28;20024;-75
2022/08/22 04:41:46;;;;;;;7.63;3.90;;;24.20;55.50;;;;;;5053918;28;20500;-75
2022/08/22 04:44:21;;;;;;;11.25;4.32;;;24.20;55.60;;;;;;5053770;28;20024;-74
2022/08/22 04:47:19;;;;;;;7.72;3.63;;;24.30;55.60;;;;;;5070870;28;20025;-75
2022/08/22 04:50:15;;;;;;;7.78;3.95;;;24.20;55.60;;;;;;5020282;28;20042;-75
2022/08/22 04:53:18;;;;;;;8.35;4.20;;;24.20;55.60;;;;;;5044580;28;20498;-74
2022/08/22 04:56:13;;;;;;;6.07;3.70;;;24.20;55.70;;;;;;5066510;28;20037;-74
2022/08/22 04:58:59;;;;;;;6.82;3.83;;;24.30;55.60;;;;;;5069729;28;20028;-75
2022/08/22 05:01:38;;;;;;;10.27;4.20;;;24.20;55.70;;;;;;5061016;28;20391;-74
2022/08/22 05:04:41;;;;;;;7.55;3.60;;;24.20;55.80;;;;;;5033860;28;20504;-75
2022/08/22 05:07:13;;;;;;;7.40;3.97;;;24.20;56.30;;;;;;5012389;28;20488;-75
2022/08/22 05:09:45;;;;;;;10.57;3.85;;;24.20;55.80;;;;;;5069696;28;20052;-75
2022/08/22 05:12:18;;;;;;;6.60;3.67;;;24.30;55.90;;;;;;5039926;28;20028;-75
2022/08/22 05:14:57;;;;;;;7.72;3.22;;;24.20;55.90;;;;;;5051868;28;20017;-75
2022/08/22 05:17:29;;;;;;;7.93;4.63;;;24.30;56.00;;;;;;5051886;28;20381;-74
2022/08/22 05:20:00;;;;;;;8.80;4.38;;;24.30;55.80;;;;;;5035976;28;20017;-75
2022/08/22 05:22:31;;;;;;;10.93;4.32;;;24.30;55.90;;;;;;5031128;28;20016;-75
2022/08/22 05:25:09;;;;;;;8.85;4.10;;;24.30;55.90;;;;;;5051881;28;20031;-75
2022/08/22 05:27:42;;;;;;;8.45;4.20;;;24.30;55.90;;;;;;5069929;28;20115;-74
2022/08/22 05:30:15;;;;;;;8.93;4.25;;;24.30;55.90;;;;;;5069799;28;20028;-75
2022/08/22 05:32:56;;;;;;;9.25;4.40;;;24.30;55.80;;;;;;5051513;28;20374;-74
2022/08/22 05:35:43;;;;;;;7.18;4.30;;;24.30;55.90;;;;;;5062636;28;20023;-75
2022/08/22 05:38:14;;;;;;;8.52;4.38;;;24.30;55.90;;;;;;5061047;28;20040;-75
2022/08/22 05:40:42;;;;;;;8.48;4.55;;;24.30;55.80;;;;;;5056175;28;20044;-75
2022/08/22 05:43:11;;;;;;;7.35;3.90;;;24.30;55.90;;;;;;5056015;28;20032;-75
2022/08/22 05:45:44;;;;;;;8.18;4.82;;;24.30;55.80;;;;;;5073710;28;20055;-75
2022/08/22 05:48:19;;;;;;;10.13;4.30;;;24.30;55.90;;;;;;5055046;28;20051;-75
2022/08/22 05:50:54;;;;;;;9.77;4.60;;;24.30;56.50;;;;;;5055925;28;20158;-75
2022/08/22 05:53:39;;;;;;;8.73;3.85;;;24.30;56.00;;;;;;5073480;28;20024;-75
2022/08/22 05:56:21;;;;;;;10.40;4.57;;;24.30;55.90;;;;;;5037629;28;20032;-74
2022/08/22 05:58:54;;;;;;;9.50;4.15;;;24.30;56.00;;;;;;5039274;28;20077;-75
2022/08/22 06:01:50;;;;;;;8.82;4.43;;;24.30;56.00;;;;;;5053906;28;20020;-74
2022/08/22 06:04:38;;;;;;;8.65;4.10;;;24.30;56.00;;;;;;5065157;28;20099;-75
2022/08/22 06:07:13;;;;;;;9.00;4.50;;;24.30;56.00;;;;;;5053659;28;20068;-74
2022/08/22 06:09:45;;;;;;;12.10;4.60;;;24.30;56.10;;;;;;5055498;28;20511;-75
2022/08/22 06:12:23;;;;;;;9.40;4.53;;;24.30;56.10;;;;;;5038925;28;20090;-75
2022/08/22 06:14:56;;;;;;;10.80;4.63;;;24.30;56.00;;;;;;5071337;28;20373;-75
2022/08/22 06:17:27;;;;;;;8.77;4.53;;;24.30;56.10;;;;;;5072230;28;20020;-75
2022/08/22 06:19:54;;;;;;;10.00;4.70;;;24.30;56.10;;;;;;5055368;28;20104;-75
2022/08/22 06:22:24;;;;;;;8.95;4.50;;;24.30;56.10;;;;;;5073916;28;20112;-75
2022/08/22 06:24:53;;;;;;;8.30;3.60;;;24.30;56.00;;;;;;5072949;28;20391;-76
2022/08/22 06:27:22;;;;;;;8.75;4.10;;;24.30;56.10;;;;;;5071937;28;20476;-76
2022/08/22 06:29:57;;;;;;;13.88;5.03;;;24.30;56.10;;;;;;5072908;28;20130;-76
2022/08/22 06:32:30;;;;;;;7.82;4.32;;;24.30;56.10;;;;;;5072766;28;20021;-76
2022/08/22 06:35:05;;;;;;;8.38;4.70;;;24.30;56.10;;;;;;5071210;28;20039;-76
2022/08/22 06:37:38;;;;;;;10.20;4.88;;;24.30;56.10;;;;;;5046086;22;20080;-74
2022/08/22 06:40:06;;;;;;;11.68;4.88;;;24.30;56.00;;;;;;5050391;28;20063;-74
2022/08/22 06:42:36;;;;;;;10.80;5.00;;;24.30;56.00;;;;;;5042975;28;20480;-75
2022/08/22 06:45:09;;;;;;;7.95;4.18;;;24.30;56.20;;;;;;5052539;28;20029;-74
2022/08/22 06:47:39;;;;;;;9.43;4.70;;;24.30;56.00;;;;;;5051202;28;20143;-75
2022/08/22 06:50:11;;;;;;;11.10;5.60;;;24.30;56.20;;;;;;5051590;28;20021;-75
2022/08/22 06:52:53;;;;;;;10.50;4.72;;;24.30;56.10;;;;;;5051192;28;20055;-74
2022/08/22 06:55:21;;;;;;;14.93;6.03;;;24.30;56.20;;;;;;5044822;28;20083;-74
2022/08/22 06:57:57;;;;;;;9.90;5.55;;;24.30;56.10;;;;;;5052161;28;20100;-74
2022/08/22 07:00:24;;;;;;;10.00;5.43;;;24.30;56.10;;;;;;5033856;28;20025;-74
2022/08/22 07:03:19;;;;;;;9.93;4.70;;;24.30;56.10;;;;;;5052976;28;20104;-74
2022/08/22 07:05:45;;;;;;;10.30;4.63;;;24.30;56.10;;;;;;5051039;28;20028;-74
2022/08/22 07:08:19;;;;;;;10.00;4.95;;;24.30;56.10;;;;;;5051336;28;20520;-75
2022/08/22 07:10:54;;;;;;;9.15;4.75;;;24.30;56.20;;;;;;5029940;28;20572;-75
2022/08/22 07:13:22;;;;;;;14.98;5.35;;;24.30;56.00;;;;;;5051920;28;20516;-75
2022/08/22 07:15:55;;;;;;;12.60;4.65;;;24.40;56.30;;;;;;5008582;28;20029;-75
2022/08/22 07:18:28;;;;;;;13.18;4.82;;;24.40;56.20;;;;;;5033905;28;20032;-75
2022/08/22 07:21:03;;;;;;;9.93;4.97;;;24.40;56.40;;;;;;5017279;28;20079;-76
2022/08/22 07:23:39;;;;;;;12.45;4.32;;;24.50;56.80;;;;;;5034495;28;20021;-75
2022/08/22 07:26:11;;;;;;;14.55;4.63;;;24.50;56.90;;;;;;5044278;28;20483;-71
2022/08/22 07:28:51;;;;;;;13.65;4.60;;;24.50;57.40;;;;;;5025457;28;20029;-72
2022/08/22 07:31:56;;;;;;;14.10;4.50;;;24.50;56.80;;;;;;5049839;28;20025;-71
2022/08/22 07:35:02;;;;;;;12.73;3.92;;;24.40;57.30;;;;;;5034702;28;20029;-72
2022/08/22 07:37:46;;;;;;;13.30;4.70;;;24.30;56.50;;;;;;5054604;28;20425;-72
2022/08/22 07:40:34;;;;;;;19.20;3.60;;;24.30;56.20;;;;;;5052544;28;20032;-72
2022/08/22 07:43:14;;;;;;;13.68;4.63;;;24.20;55.70;;;;;;5052669;28;20039;-72
2022/08/22 07:45:49;;;;;;;11.95;5.85;;;24.20;55.00;;;;;;5051697;28;20043;-72
2022/08/22 07:48:27;;;;;;;12.02;4.38;;;24.20;55.30;;;;;;5049689;28;20070;-71
2022/08/22 07:51:16;;;;;;;18.00;3.60;;;24.20;55.40;;;;;;5052229;28;20043;-70
2022/08/22 07:53:58;;;;;;;14.52;4.53;;;24.20;54.70;;;;;;5052185;28;20121;-69
2022/08/22 07:56:29;;;;;;;10.70;3.60;;;24.20;55.20;;;;;;5033838;28;20480;-69
2022/08/22 07:59:03;;;;;;;7.95;2.63;;;24.10;54.50;;;;;;5018272;28;20040;-69
2022/08/22 08:01:32;;;;;;;7.97;2.45;;;24.20;54.10;;;;;;5052432;28;20028;-68
2022/08/22 08:04:05;;;;;;;9.35;2.50;;;24.10;53.40;;;;;;5034207;28;20143;-69
2022/08/22 08:06:32;;;;;;;11.50;2.75;;;24.10;53.80;;;;;;5014020;28;20072;-68
2022/08/22 08:08:59;;;;;;;7.03;2.70;;;24.10;54.20;;;;;;5032237;28;20026;-69
2022/08/22 08:11:27;;;;;;;10.95;3.10;;;24.10;54.00;;;;;;5032220;28;20496;-69
2022/08/22 08:13:58;;;;;;;8.77;2.40;;;24.10;54.40;;;;;;5031000;28;20048;-69
2022/08/22 08:16:29;;;;;;;9.88;2.65;;;24.10;54.60;;;;;;5030300;28;20531;-69
2022/08/22 08:18:58;;;;;;;5.32;2.35;;;24.10;54.60;;;;;;5031246;28;20044;-69
2022/08/22 08:21:41;;;;;;;7.55;2.30;;;24.10;54.20;;;;;;5039575;28;20033;-69
2022/08/22 08:24:13;;;;;;;7.60;1.77;;;24.10;53.70;;;;;;5033938;28;20037;-69
2022/08/22 08:28:32;;;;;;;9.43;2.30;;;24.00;52.90;;;;;;5051370;28;20029;-71
2022/08/22 08:29:30;;;;;;;8.68;2.45;;;24.10;52.80;;;;;;5051797;28;20036;-70
2022/08/22 08:31:59;;;;;;;8.13;2.53;;;24.10;53.20;;;;;;5051887;28;20036;-70
2022/08/22 08:34:26;;;;;;;11.93;3.08;;;24.10;53.10;;;;;;5051539;28;20025;-70
2022/08/22 08:37:01;;;;;;;10.45;2.70;;;24.10;53.10;;;;;;5050949;28;20044;-70
2022/08/22 08:39:36;;;;;;;8.85;2.38;;;24.10;53.10;;;;;;5033910;28;20096;-70
2022/08/22 08:46:06;;;;;;;8.55;2.03;;;24.10;52.40;;;;;;4987185;28;20487;-70
2022/08/22 08:49:08;;;;;;;6.10;2.00;;;24.10;52.70;;;;;;5051742;28;20033;-70
2022/08/22 08:51:52;;;;;;;7.38;2.25;;;24.10;52.70;;;;;;4997624;28;20049;-70
2022/08/22 08:54:53;;;;;;;10.65;2.47;;;24.20;52.90;;;;;;5065925;28;20053;-70
2022/08/22 08:57:41;;;;;;;6.75;2.47;;;24.10;52.80;;;;;;5056337;28;20025;-70
2022/08/22 09:00:12;;;;;;;8.63;2.72;;;24.10;52.80;;;;;;5050861;28;20025;-70
2022/08/22 09:02:50;;;;;;;12.27;2.10;;;24.10;52.60;;;;;;5032886;28;20028;-70
2022/08/22 09:05:34;;;;;;;9.38;2.05;;;24.20;53.20;;;;;;5042333;28;20166;-69
2022/08/22 09:08:13;;;;;;;7.60;1.80;;;24.20;52.80;;;;;;5051421;28;20029;-68
2022/08/22 09:10:57;;;;;;;10.32;2.05;;;24.10;52.50;;;;;;5032761;28;20025;-72
2022/08/22 09:13:44;;;;;;;11.25;2.10;;;24.10;53.10;;;;;;5030731;28;20435;-72
2022/08/22 09:16:35;;;;;;;9.10;3.92;;;24.10;52.20;;;;;;5053993;28;20044;-73
2022/08/22 09:19:42;;;;;;;6.90;2.67;;;24.20;52.90;;;;;;5054985;28;20071;-72
2022/08/22 09:22:21;;;;;;;9.88;3.28;;;24.10;52.10;;;;;;5055081;28;20389;-72
2022/08/22 09:25:41;;;;;;;9.43;3.17;;;24.20;52.30;;;;;;5055231;28;20140;-72
2022/08/22 09:28:16;;;;;;;10.90;3.05;;;24.20;52.40;;;;;;4974103;28;20062;-73
2022/08/22 09:31:19;;;;;;;10.30;2.75;;;24.20;53.00;;;;;;5024319;28;20044;-73
2022/08/22 09:33:51;;;;;;;10.70;2.95;;;24.20;53.30;;;;;;5035024;28;20030;-72
2022/08/22 09:36:26;;;;;;;8.60;2.47;;;24.20;53.10;;;;;;5019487;28;20416;-72
2022/08/22 09:39:17;;;;;;;9.90;2.35;;;24.10;52.80;;;;;;5054937;28;20108;-72
2022/08/22 09:41:49;;;;;;;8.48;2.53;;;24.10;52.40;;;;;;5055132;28;20379;-73
2022/08/22 09:44:46;;;;;;;15.18;3.28;;;24.10;52.70;;;;;;5036367;28;20056;-72
2022/08/22 09:47:21;;;;;;;10.27;2.53;;;24.10;52.80;;;;;;5051948;28;20492;-72
2022/08/22 09:50:12;;;;;;;11.18;2.45;;;24.10;52.40;;;;;;5052395;28;20033;-73
2022/08/22 09:53:15;;;;;;;9.13;2.30;;;24.10;52.40;;;;;;5050213;28;20087;-73
2022/08/22 09:56:07;;;;;;;8.27;2.38;;;24.10;52.10;;;;;;5069116;28;20058;-73
2022/08/22 09:58:51;;;;;;;6.90;2.22;;;24.10;51.90;;;;;;5054691;28;20025;-73
2022/08/22 10:01:17;;;;;;;9.05;2.58;;;24.10;52.50;;;;;;5054580;28;20036;-72
2022/08/22 10:04:03;;;;;;;5.50;2.22;;;24.20;52.50;;;;;;5054475;28;20029;-73
2022/08/22 10:06:59;;;;;;;6.38;2.17;;;24.20;52.40;;;;;;5035210;28;20510;-73
2022/08/22 10:09:34;;;;;;;10.52;2.67;;;24.20;52.50;;;;;;5048398;28;20465;-74
2022/08/22 10:12:08;;;;;;;8.80;2.20;;;24.20;52.40;;;;;;5034825;28;20025;-73
2022/08/22 10:14:43;;;;;;;9.65;2.28;;;24.20;52.40;;;;;;5057721;28;20029;-74
2022/08/22 10:17:30;;;;;;;11.57;2.53;;;24.20;52.00;;;;;;5052392;28;20020;-73
2022/08/22 10:20:13;;;;;;;8.13;2.20;;;24.20;52.00;;;;;;5035285;28;20425;-75
2022/08/22 10:23:07;;;;;;;11.88;2.47;;;24.20;52.10;;;;;;5055371;28;20377;-76
2022/08/22 10:25:43;;;;;;;11.85;2.30;;;24.20;52.50;;;;;;5036235;28;20058;-76
2022/08/22 10:28:31;;;;;;;10.70;2.42;;;24.20;52.60;;;;;;5049287;28;20401;-76
2022/08/22 10:31:15;;;;;;;11.52;2.33;;;24.20;52.90;;;;;;5038709;28;20059;-77
2022/08/22 10:33:53;;;;;;;10.38;2.60;;;24.30;53.00;;;;;;5051843;28;20029;-76
2022/08/22 10:36:50;;;;;;;10.55;2.20;;;24.30;53.20;;;;;;5052902;28;20025;-76
2022/08/22 10:39:27;;;;;;;8.13;1.92;;;24.20;53.40;;;;;;5040475;28;20048;-76
2022/08/22 10:42:23;;;;;;;7.63;2.05;;;24.30;53.30;;;;;;5053886;28;20025;-76
2022/08/22 10:45:02;;;;;;;9.02;2.38;;;24.20;53.50;;;;;;5026914;28;20393;-77
2022/08/22 10:47:51;;;;;;;17.20;2.55;;;24.30;53.60;;;;;;5052098;28;20642;-76
2022/08/22 10:50:25;;;;;;;7.00;2.10;;;24.20;53.80;;;;;;5017244;28;20070;-76
2022/08/22 10:53:28;;;;;;;4.93;1.90;;;24.20;53.70;;;;;;5052591;28;20040;-76
2022/08/22 10:55:47;;;;;;;6.97;1.80;;;24.20;53.80;;;;;;5052541;28;20400;-75
2022/08/22 10:58:37;;;;;;;7.50;1.65;;;24.30;53.80;;;;;;5019344;28;20032;-76
2022/08/22 11:01:07;;;;;;;9.32;2.38;;;24.30;53.90;;;;;;5052295;28;20029;-76
2022/08/22 11:03:42;;;;;;;6.35;2.00;;;24.30;53.90;;;;;;5035590;28;20111;-76
2022/08/22 11:06:26;;;;;;;4.18;1.65;;;24.20;53.90;;;;;;5052586;28;20043;-76
2022/08/22 11:09:04;;;;;;;7.07;1.80;;;24.20;53.70;;;;;;5053328;28;20040;-76
2022/08/22 11:11:49;;;;;;;6.35;1.90;;;24.20;53.80;;;;;;5053449;28;20103;-76
2022/08/22 11:14:58;;;;;;;5.53;1.98;;;24.30;54.00;;;;;;5053306;28;20444;-76
2022/08/22 11:17:45;;;;;;;7.43;1.75;;;24.30;54.00;;;;;;5034215;28;20037;-76
2022/08/22 11:20:53;;;;;;;5.28;1.70;;;24.30;54.10;;;;;;5051920;28;20048;-76
2022/08/22 11:23:38;;;;;;;5.50;2.00;;;24.30;54.10;;;;;;5044155;28;20037;-77
2022/08/22 11:26:03;;;;;;;6.70;1.90;;;24.30;54.20;;;;;;5052167;28;20021;-77
2022/08/22 11:28:33;;;;;;;4.82;1.63;;;24.30;54.20;;;;;;5052955;28;20113;-77
2022/08/22 11:31:07;;;;;;;6.53;1.88;;;24.30;54.10;;;;;;5052904;28;20112;-77
2022/08/22 11:33:36;;;;;;;5.70;1.70;;;24.30;54.10;;;;;;5052884;28;20445;-76
2022/08/22 11:36:27;;;;;;;4.57;1.58;;;24.30;54.10;;;;;;5050607;28;20067;-77
2022/08/22 11:39:08;;;;;;;5.65;1.98;;;24.30;54.10;;;;;;5052543;28;20029;-77
2022/08/22 11:41:45;;;;;;;3.85;1.73;;;24.30;54.20;;;;;;5052705;28;20053;-77
2022/08/22 11:44:31;;;;;;;5.72;1.38;;;24.30;53.80;;;;;;5034793;28;20456;-77
2022/08/22 11:47:00;;;;;;;4.15;1.73;;;24.30;54.20;;;;;;5051822;28;20493;-76
2022/08/22 11:49:31;;;;;;;4.65;1.55;;;24.30;54.20;;;;;;5034810;28;20021;-76
2022/08/22 11:52:17;;;;;;;3.47;1.60;;;24.30;54.20;;;;;;5018413;28;20039;-77
2022/08/22 11:55:10;;;;;;;5.50;1.70;;;24.30;54.30;;;;;;5052570;28;20040;-76
2022/08/22 11:57:43;;;;;;;5.63;1.70;;;24.30;54.40;;;;;;5051252;28;20037;-76
2022/08/22 12:00:30;;;;;;;4.30;1.60;;;24.30;54.30;;;;;;5052375;28;20025;-76
2022/08/22 12:02:56;;;;;;;6.68;1.70;;;24.30;54.30;;;;;;5052331;28;20107;-77
2022/08/22 12:05:29;;;;;;;5.95;1.70;;;24.30;54.50;;;;;;5051420;28;20441;-78
2022/08/22 12:08:17;;;;;;;4.30;1.80;;;24.30;54.40;;;;;;5052172;28;20025;-77
2022/08/22 12:11:08;;;;;;;4.28;1.58;;;24.30;54.60;;;;;;5052192;28;20052;-77
2022/08/22 12:14:05;;;;;;;3.13;1.52;;;24.30;54.40;;;;;;5015088;28;20044;-77
2022/08/22 12:16:55;;;;;;;3.17;1.60;;;24.30;54.30;;;;;;5025063;28;20370;-77
2022/08/22 12:19:33;;;;;;;5.15;1.70;;;24.30;54.50;;;;;;5052015;28;20069;-77
2022/08/22 12:22:10;;;;;;;5.55;1.63;;;24.30;54.50;;;;;;5034532;28;20492;-77
2022/08/22 12:25:01;;;;;;;4.95;1.55;;;24.30;54.60;;;;;;5052008;28;20099;-77
2022/08/22 12:27:36;;;;;;;3.85;1.55;;;24.30;54.60;;;;;;5033754;28;20037;-77
2022/08/22 12:30:34;;;;;;;4.05;1.55;;;24.30;54.60;;;;;;5051855;28;20037;-77
2022/08/22 12:33:19;;;;;;;5.32;1.80;;;24.30;54.60;;;;;;5050667;28;20032;-77
2022/08/22 12:38:37;;;;;;;4.88;1.70;;;24.30;54.30;;;;;;5003765;28;20455;-74
2022/08/22 12:41:19;;;;;;;4.93;1.83;;;24.30;54.60;;;;;;5010661;28;20034;-74
2022/08/22 12:44:00;;;;;;;4.68;1.50;;;24.30;54.60;;;;;;5010866;28;20398;-75
2022/08/22 12:46:58;;;;;;;3.85;1.65;;;24.30;54.60;;;;;;5010064;28;20033;-75
2022/08/22 12:50:12;;;;;;;4.15;1.65;;;24.30;54.60;;;;;;4996675;28;20095;-76
2022/08/22 12:52:57;;;;;;;3.78;1.60;;;24.30;54.60;;;;;;5010828;28;20448;-75
2022/08/22 12:55:31;;;;;;;4.50;1.67;;;24.30;54.60;;;;;;5011391;28;20041;-75
2022/08/22 12:58:33;;;;;;;4.30;1.60;;;24.30;54.50;;;;;;5012093;28;20033;-75
2022/08/22 13:01:04;;;;;;;4.07;1.58;;;24.30;54.40;;;;;;5010836;28;20120;-74
2022/08/22 13:03:34;;;;;;;3.28;1.55;;;24.30;54.70;;;;;;5011805;28;20394;-74
2022/08/22 13:06:24;;;;;;;4.35;1.63;;;24.30;54.90;;;;;;5010935;28;20080;-75
2022/08/22 13:08:51;;;;;;;4.55;1.90;;;24.30;54.80;;;;;;5011679;28;20507;-75
2022/08/22 13:11:18;;;;;;;3.22;1.50;;;24.30;54.70;;;;;;5011916;28;20478;-75
2022/08/22 13:13:57;;;;;;;4.32;1.83;;;24.30;54.60;;;;;;5011346;28;20026;-74
2022/08/22 13:16:25;;;;;;;4.55;1.50;;;24.30;54.50;;;;;;5009764;28;20029;-75
2022/08/22 13:18:59;;;;;;;3.50;1.48;;;24.30;55.30;;;;;;5026377;28;20022;-76
2022/08/22 13:21:35;;;;;;;5.15;1.65;;;24.30;54.80;;;;;;5011797;28;20034;-76
2022/08/22 13:24:10;;;;;;;4.18;1.65;;;24.30;54.70;;;;;;5011571;28;20045;-75
2022/08/22 13:26:43;;;;;;;4.00;1.48;;;24.30;54.80;;;;;;5011382;28;20032;-76
2022/08/22 13:29:26;;;;;;;2.70;1.40;;;24.30;54.80;;;;;;5011739;28;20071;-76
2022/08/22 13:31:59;;;;;;;3.65;1.48;;;24.30;54.80;;;;;;5011741;28;20072;-76
2022/08/22 13:34:49;;;;;;;5.25;1.52;;;24.30;54.80;;;;;;5026705;28;20117;-76
2022/08/22 13:37:20;;;;;;;5.38;1.50;;;24.30;54.90;;;;;;5009547;28;20715;-76
2022/08/22 13:39:49;;;;;;;4.80;1.50;;;24.30;54.90;;;;;;5011714;28;20108;-75
2022/08/22 13:42:22;;;;;;;3.88;1.40;;;24.30;55.00;;;;;;5010552;28;20037;-75
2022/08/22 13:44:52;;;;;;;3.55;1.40;;;24.30;54.90;;;;;;5010434;28;20057;-76
2022/08/22 13:47:21;;;;;;;3.65;1.50;;;24.30;54.80;;;;;;5009550;28;20037;-76
2022/08/22 13:49:54;;;;;;;2.65;1.45;;;24.30;55.00;;;;;;5011461;28;20033;-76
2022/08/22 13:52:25;;;;;;;4.07;1.45;;;24.30;55.00;;;;;;5010359;28;20034;-76
2022/08/22 13:55:09;;;;;;;3.20;1.45;;;24.30;54.90;;;;;;5011531;28;20030;-76
2022/08/22 13:57:53;;;;;;;4.60;1.60;;;24.30;55.00;;;;;;5011570;28;20443;-76
2022/08/22 14:00:34;;;;;;;4.50;1.77;;;24.30;55.20;;;;;;5012909;28;20112;-76
2022/08/22 14:03:05;;;;;;;3.88;1.80;;;24.30;54.90;;;;;;5014216;28;20030;-76
2022/08/22 14:05:35;;;;;;;4.07;1.40;;;24.30;54.70;;;;;;5014197;28;20022;-76
2022/08/22 14:08:12;;;;;;;2.92;1.52;;;24.30;55.00;;;;;;5014906;28;20045;-76